createdAt,value
2023-03-22T00:00:28.054Z,24.25
2023-03-22T00:02:32.514Z,24.25
2023-03-22T00:04:37.194Z,24.26
2023-03-22T00:06:41.621Z,24.26
2023-03-22T00:08:46.027Z,24.27
2023-03-22T00:10:50.403Z,24.27
2023-03-22T00:12:54.780Z,24.27
2023-03-22T00:14:59.121Z,24.26
2023-03-22T00:17:03.651Z,24.26
2023-03-22T00:19:08.032Z,24.25
2023-03-22T00:21:12.454Z,24.25
2023-03-22T00:23:16.861Z,24.26
2023-03-22T00:25:21.241Z,24.25
2023-03-22T00:27:25.571Z,24.24
2023-03-22T00:29:29.963Z,24.23
2023-03-22T00:31:34.364Z,24.22
2023-03-22T00:33:38.878Z,24.21
2023-03-22T00:35:43.375Z,24.2
2023-03-22T00:37:47.909Z,24.2
2023-03-22T00:39:52.242Z,24.19
2023-03-22T00:41:56.617Z,24.18
2023-03-22T00:44:00.985Z,24.18
2023-03-22T00:46:05.398Z,24.18
2023-03-22T00:48:10.054Z,24.17
2023-03-22T00:50:14.799Z,24.16
2023-03-22T00:52:19.316Z,24.17
2023-03-22T00:54:23.649Z,24.17
2023-03-22T00:56:27.965Z,24.17
2023-03-22T00:58:32.654Z,24.17
2023-03-22T01:00:37.286Z,24.17
2023-03-22T01:02:42.764Z,24.17
2023-03-22T01:04:47.295Z,24.17
2023-03-22T01:06:51.750Z,24.18
2023-03-22T01:08:56.064Z,24.17
2023-03-22T01:11:00.383Z,24.17
2023-03-22T01:13:04.958Z,24.17
2023-03-22T01:15:09.272Z,24.17
2023-03-22T01:17:13.636Z,24.18
2023-03-22T01:19:17.943Z,24.19
2023-03-22T01:21:22.469Z,24.19
2023-03-22T01:23:26.921Z,24.2
2023-03-22T01:25:31.234Z,24.2
2023-03-22T01:27:35.580Z,24.2
2023-03-22T01:29:39.924Z,24.2
2023-03-22T01:31:44.273Z,24.2
2023-03-22T01:33:48.647Z,24.2
2023-03-22T01:35:53.188Z,24.18
2023-03-22T01:37:57.848Z,24.18
2023-03-22T01:40:02.342Z,24.17
2023-03-22T01:42:06.684Z,24.17
2023-03-22T01:44:11.069Z,24.15
2023-03-22T01:46:15.564Z,24.14
2023-03-22T01:48:20.205Z,24.13
2023-03-22T01:50:24.689Z,24.12
2023-03-22T01:52:29.024Z,24.1
2023-03-22T01:54:33.349Z,24.11
2023-03-22T01:56:37.740Z,24.09
2023-03-22T01:58:42.095Z,24.11
2023-03-22T02:00:46.465Z,24.1
2023-03-22T02:02:50.833Z,24.09
2023-03-22T02:04:55.321Z,24.07
2023-03-22T02:06:59.609Z,24.07
2023-03-22T02:09:03.980Z,24.07
2023-03-22T02:11:08.343Z,24.07
2023-03-22T02:13:12.666Z,24.06
2023-03-22T02:15:17.030Z,24.04
2023-03-22T02:17:21.373Z,24.04
2023-03-22T02:19:25.732Z,24.04
2023-03-22T02:21:30.074Z,24.04
2023-03-22T02:23:34.359Z,24.04
2023-03-22T02:25:38.742Z,24.03
2023-03-22T02:27:43.065Z,24.02
2023-03-22T02:29:47.385Z,24.01
2023-03-22T02:31:51.721Z,24
2023-03-22T02:33:56.037Z,23.99
2023-03-22T02:36:00.405Z,23.98
2023-03-22T02:38:04.741Z,23.98
2023-03-22T02:40:09.126Z,24
2023-03-22T02:42:13.441Z,23.99
2023-03-22T02:44:17.784Z,23.99
2023-03-22T02:46:22.260Z,23.97
2023-03-22T02:48:26.824Z,23.98
2023-03-22T02:50:31.204Z,23.97
2023-03-22T02:52:35.565Z,23.97
2023-03-22T02:54:40.040Z,23.96
2023-03-22T02:56:47.476Z,23.96
2023-03-22T02:58:52.354Z,23.95
2023-03-22T03:00:56.747Z,23.95
2023-03-22T03:03:01.307Z,23.95
2023-03-22T03:05:05.744Z,23.94
2023-03-22T03:07:10.219Z,23.93
2023-03-22T03:09:14.540Z,23.92
2023-03-22T03:11:18.872Z,23.92
2023-03-22T03:13:23.171Z,23.92
2023-03-22T03:15:27.516Z,23.91
2023-03-22T03:17:31.870Z,23.9
2023-03-22T03:19:36.172Z,23.9
2023-03-22T03:22:01.567Z,23.86
2023-03-22T03:24:05.912Z,23.88
2023-03-22T03:26:10.257Z,23.89
2023-03-22T03:28:14.590Z,23.89
2023-03-22T03:30:18.938Z,23.89
2023-03-22T03:32:23.360Z,23.91
2023-03-22T03:34:27.709Z,23.9
2023-03-22T03:36:32.061Z,23.92
2023-03-22T03:38:36.344Z,23.91
2023-03-22T03:40:41.085Z,23.92
2023-03-22T03:42:45.617Z,23.92
2023-03-22T03:44:49.954Z,23.91
2023-03-22T03:46:54.334Z,23.9
2023-03-22T03:48:58.869Z,23.91
2023-03-22T03:51:03.192Z,23.9
2023-03-22T03:53:07.528Z,23.9
2023-03-22T03:55:11.846Z,23.9
2023-03-22T03:57:16.163Z,23.89
2023-03-22T03:59:20.541Z,23.9
2023-03-22T04:01:24.866Z,23.89
2023-03-22T04:03:29.230Z,23.88
2023-03-22T04:05:33.543Z,23.88
2023-03-22T04:07:37.897Z,23.88
2023-03-22T04:09:42.215Z,23.88
2023-03-22T04:11:46.553Z,23.86
2023-03-22T04:13:50.868Z,23.87
2023-03-22T04:15:55.192Z,23.87
2023-03-22T04:17:59.481Z,23.86
2023-03-22T04:20:05.807Z,23.88
2023-03-22T04:22:10.351Z,23.87
2023-03-22T04:24:14.665Z,23.87
2023-03-22T04:26:19.042Z,23.87
2023-03-22T04:28:23.497Z,23.85
2023-03-22T04:30:27.807Z,23.84
2023-03-22T04:32:32.133Z,23.83
2023-03-22T04:34:36.438Z,23.84
2023-03-22T04:36:40.787Z,23.83
2023-03-22T04:38:45.135Z,23.82
2023-03-22T04:40:49.591Z,23.81
2023-03-22T04:42:53.928Z,23.8
2023-03-22T04:44:58.248Z,23.79
2023-03-22T04:47:02.559Z,23.79
2023-03-22T04:49:06.884Z,23.78
2023-03-22T04:51:11.193Z,23.77
2023-03-22T04:53:15.578Z,23.77
2023-03-22T04:55:19.979Z,23.76
2023-03-22T04:57:24.294Z,23.76
2023-03-22T04:59:28.612Z,23.74
2023-03-22T05:01:33.007Z,23.74
2023-03-22T05:03:37.532Z,23.74
2023-03-22T05:05:41.858Z,23.74
2023-03-22T05:07:46.183Z,23.72
2023-03-22T05:09:50.500Z,23.73
2023-03-22T05:11:54.818Z,23.72
2023-03-22T05:13:59.153Z,23.73
2023-03-22T05:16:03.517Z,23.73
2023-03-22T05:18:08.187Z,23.73
2023-03-22T05:20:12.579Z,23.73
2023-03-22T05:22:16.986Z,23.73
2023-03-22T05:24:21.307Z,23.72
2023-03-22T05:26:25.689Z,23.72
2023-03-22T05:28:30.045Z,23.72
2023-03-22T05:30:34.494Z,23.72
2023-03-22T05:32:38.910Z,23.72
2023-03-22T05:34:43.251Z,23.73
2023-03-22T05:36:47.552Z,23.72
2023-03-22T05:38:51.922Z,23.72
2023-03-22T05:40:56.250Z,23.72
2023-03-22T05:43:00.590Z,23.72
2023-03-22T05:58:32.589Z,23.43
2023-03-22T06:00:37.110Z,23.57
2023-03-22T06:02:42.415Z,23.68
2023-03-22T06:04:47.019Z,23.77
2023-03-22T06:06:51.327Z,23.8
2023-03-22T06:09:04.233Z,23.85
2023-03-22T06:11:20.659Z,23.91
2023-03-22T06:13:25.062Z,23.93
2023-03-22T06:15:29.535Z,23.94
2023-03-22T06:17:33.921Z,23.95
2023-03-22T06:19:38.281Z,23.95
2023-03-22T06:21:42.607Z,23.96
2023-03-22T06:23:46.920Z,23.98
2023-03-22T06:25:51.291Z,24.01
2023-03-22T06:27:55.643Z,24.03
2023-03-22T06:30:00.039Z,24.05
2023-03-22T06:32:04.545Z,24.05
2023-03-22T06:34:08.896Z,24.07
2023-03-22T06:36:13.271Z,24.07
2023-03-22T06:38:17.614Z,24.06
2023-03-22T06:40:22.123Z,24.11
2023-03-22T06:42:26.460Z,24.07
2023-03-22T06:44:30.802Z,23.94
2023-03-22T06:46:35.362Z,23.75
2023-03-22T06:48:39.658Z,23.64
2023-03-22T06:50:44.482Z,23.57
2023-03-22T06:52:49.629Z,23.47
2023-03-22T06:54:53.927Z,23.46
2023-03-22T06:56:58.287Z,23.5
2023-03-22T06:59:02.642Z,23.55
2023-03-22T07:01:07.076Z,23.61
2023-03-22T07:03:11.567Z,23.66
2023-03-22T07:05:15.943Z,23.68
2023-03-22T07:07:20.340Z,23.69
2023-03-22T07:09:24.679Z,23.7
2023-03-22T07:11:29.032Z,23.74
2023-03-22T07:13:33.380Z,23.77
2023-03-22T07:15:37.720Z,23.76
2023-03-22T07:17:42.259Z,23.81
2023-03-22T07:19:46.689Z,23.85
2023-03-22T07:21:51.059Z,23.88
2023-03-22T07:23:55.439Z,23.9
2023-03-22T07:25:59.836Z,23.9
2023-03-22T07:28:04.255Z,23.87
2023-03-22T07:30:09.782Z,23.83
2023-03-22T07:32:14.429Z,23.81
2023-03-22T07:34:19.276Z,23.78
2023-03-22T07:36:23.788Z,23.81
2023-03-22T07:38:28.175Z,23.77
2023-03-22T07:40:32.509Z,23.76
2023-03-22T07:42:37.139Z,23.76
2023-03-22T07:44:41.524Z,23.77
2023-03-22T07:46:48.370Z,23.74
2023-03-22T07:48:53.008Z,23.73
2023-03-22T07:50:57.296Z,23.76
2023-03-22T07:53:01.640Z,23.78
2023-03-22T07:55:06.152Z,23.77
2023-03-22T07:57:10.587Z,23.75
2023-03-22T07:59:14.968Z,23.74
2023-03-22T08:01:19.663Z,23.74
2023-03-22T08:03:24.127Z,23.73
2023-03-22T08:05:28.741Z,23.72
2023-03-22T08:07:33.122Z,23.72
2023-03-22T08:09:37.577Z,23.71
2023-03-22T08:11:41.910Z,23.69
2023-03-22T08:13:46.283Z,23.69
2023-03-22T08:15:50.636Z,23.71
2023-03-22T08:17:55.039Z,23.74
2023-03-22T08:19:59.430Z,23.72
2023-03-22T08:22:03.860Z,23.72
2023-03-22T08:24:08.285Z,23.72
2023-03-22T08:26:12.656Z,23.73
2023-03-22T08:28:17.050Z,23.73
2023-03-22T08:30:21.469Z,23.71
2023-03-22T08:32:26.028Z,23.74
2023-03-22T08:34:30.412Z,23.74
2023-03-22T08:36:34.970Z,23.74
2023-03-22T08:38:39.317Z,23.75
2023-03-22T08:40:43.725Z,23.75
2023-03-22T08:42:48.213Z,23.77
2023-03-22T08:44:52.617Z,23.77
2023-03-22T08:46:57.013Z,23.78
2023-03-22T08:49:01.478Z,23.77
2023-03-22T08:51:05.941Z,23.79
2023-03-22T08:53:10.319Z,23.77
2023-03-22T08:55:14.686Z,23.79
2023-03-22T08:57:19.080Z,23.79
2023-03-22T08:59:23.454Z,23.78
2023-03-22T09:01:27.908Z,23.81
2023-03-22T09:03:32.718Z,23.82
2023-03-22T09:05:37.414Z,23.8
2023-03-22T09:07:42.746Z,23.82
2023-03-22T09:09:47.092Z,23.83
2023-03-22T09:11:51.587Z,23.84
2023-03-22T09:13:55.909Z,23.84
2023-03-22T09:16:00.298Z,23.85
2023-03-22T09:18:04.867Z,23.85
2023-03-22T09:20:12.693Z,23.83
2023-03-22T09:22:17.517Z,23.82
2023-03-22T09:24:21.870Z,23.85
2023-03-22T09:26:26.236Z,23.86
2023-03-22T09:28:30.900Z,23.86
2023-03-22T09:30:35.520Z,23.86
2023-03-22T09:32:39.958Z,23.86
2023-03-22T09:34:44.306Z,23.86
2023-03-22T09:36:48.684Z,23.87
2023-03-22T09:38:53.010Z,23.87
2023-03-22T09:40:57.367Z,23.89
2023-03-22T09:43:01.748Z,23.89
2023-03-22T09:45:06.268Z,23.9
2023-03-22T09:47:10.651Z,23.91
2023-03-22T09:49:15.020Z,23.91
2023-03-22T09:51:19.337Z,23.9
2023-03-22T09:53:23.693Z,23.9
2023-03-22T09:55:28.018Z,23.91
2023-03-22T09:57:32.386Z,23.91
2023-03-22T09:59:36.731Z,23.92
2023-03-22T10:01:41.214Z,23.9
2023-03-22T10:03:46.426Z,23.94
2023-03-22T10:05:50.916Z,23.93
2023-03-22T10:07:55.277Z,23.94
2023-03-22T10:09:59.633Z,23.94
2023-03-22T10:12:04.055Z,23.96
2023-03-22T10:14:08.453Z,23.96
2023-03-22T10:16:12.937Z,23.96
2023-03-22T10:18:17.592Z,23.98
2023-03-22T10:20:21.968Z,23.98
2023-03-22T10:22:26.348Z,23.99
2023-03-22T10:24:30.776Z,24.01
2023-03-22T10:26:35.244Z,24.02
2023-03-22T10:28:39.656Z,24.02
2023-03-22T10:30:44.043Z,24.04
2023-03-22T10:32:57.393Z,24.05
2023-03-22T10:35:02.178Z,24.06
2023-03-22T10:37:06.675Z,24.06
2023-03-22T10:39:11.136Z,24.06
2023-03-22T10:41:17.185Z,24.07
2023-03-22T10:43:21.764Z,24.06
2023-03-22T10:45:26.081Z,24.06
2023-03-22T10:47:30.600Z,24.08
2023-03-22T10:49:35.022Z,24.08
2023-03-22T10:51:39.409Z,24.08
2023-03-22T10:53:43.769Z,24.1
2023-03-22T10:55:48.187Z,24.13
2023-03-22T10:57:52.677Z,24.13
2023-03-22T10:59:57.056Z,24.15
2023-03-22T11:02:01.588Z,24.16
2023-03-22T11:04:06.494Z,24.16
2023-03-22T11:06:10.987Z,24.17
2023-03-22T11:08:15.400Z,24.17
2023-03-22T11:10:19.781Z,24.18
2023-03-22T11:12:24.347Z,24.19
2023-03-22T11:14:28.757Z,24.19
2023-03-22T11:16:33.190Z,24.2
2023-03-22T11:18:37.735Z,24.2
2023-03-22T11:20:42.483Z,24.21
2023-03-22T11:22:47.782Z,24.21
2023-03-22T11:24:52.289Z,24.22
2023-03-22T11:26:56.712Z,24.23
2023-03-22T11:29:01.041Z,24.24
2023-03-22T11:31:05.382Z,24.25
2023-03-22T11:33:09.838Z,24.24
2023-03-22T11:35:14.315Z,24.26
2023-03-22T11:37:18.631Z,24.28
2023-03-22T11:39:23.104Z,24.29
2023-03-22T11:41:27.500Z,24.29
2023-03-22T11:43:31.936Z,24.3
2023-03-22T11:45:36.281Z,24.29
2023-03-22T11:47:40.937Z,24.29
2023-03-22T11:49:45.664Z,24.28
2023-03-22T11:51:50.145Z,24.28
2023-03-22T11:53:54.522Z,24.28
2023-03-22T11:55:58.928Z,24.28
2023-03-22T11:58:03.421Z,24.28
2023-03-22T12:00:07.766Z,24.28
2023-03-22T12:02:12.145Z,24.29
2023-03-22T12:04:16.787Z,24.29
2023-03-22T12:06:21.482Z,24.29
2023-03-22T12:08:26.034Z,24.28
2023-03-22T12:10:30.376Z,24.28
2023-03-22T12:12:34.771Z,24.29
2023-03-22T12:14:39.113Z,24.29
2023-03-22T12:16:43.524Z,24.29
2023-03-22T12:18:48.157Z,24.31
2023-03-22T12:20:52.519Z,24.32
2023-03-22T12:22:56.919Z,24.3
2023-03-22T12:25:01.288Z,24.28
2023-03-22T12:27:05.700Z,24.29
2023-03-22T12:29:10.120Z,24.29
2023-03-22T12:31:14.536Z,24.3
2023-03-22T12:33:19.159Z,24.31
2023-03-22T12:35:23.867Z,24.32
2023-03-22T12:37:29.274Z,24.35
2023-03-22T12:39:34.860Z,24.38
2023-03-22T12:41:39.347Z,24.42
2023-03-22T12:43:43.747Z,24.45
2023-03-22T12:45:48.199Z,24.46
2023-03-22T12:47:52.931Z,24.43
2023-03-22T12:49:57.796Z,24.32
2023-03-22T12:52:02.311Z,24.27
2023-03-22T12:54:06.725Z,24.26
2023-03-22T12:56:11.239Z,24.28
2023-03-22T12:58:15.599Z,24.26
2023-03-22T13:00:19.968Z,24.25
2023-03-22T13:02:24.473Z,24.25
2023-03-22T13:04:31.344Z,24.26
2023-03-22T13:06:35.800Z,24.26
2023-03-22T13:08:40.207Z,24.28
2023-03-22T13:10:44.594Z,24.25
2023-03-22T13:12:48.944Z,24.21
2023-03-22T13:14:53.314Z,24.22
2023-03-22T13:16:57.711Z,24.23
2023-03-22T13:19:02.375Z,24.21
2023-03-22T13:21:06.757Z,24.22
2023-03-22T13:23:11.129Z,24.23
2023-03-22T13:25:15.511Z,24.16
2023-03-22T13:27:19.973Z,24.09
2023-03-22T13:29:24.721Z,23.98
2023-03-22T13:31:29.191Z,23.9
2023-03-22T13:33:33.681Z,23.82
2023-03-22T13:35:38.237Z,23.79
2023-03-22T13:37:43.707Z,23.76
2023-03-22T13:39:48.098Z,23.72
2023-03-22T13:41:52.440Z,23.7
2023-03-22T13:43:56.834Z,23.67
2023-03-22T13:46:01.450Z,23.65
2023-03-22T13:48:06.281Z,23.65
2023-03-22T13:50:11.287Z,23.66
2023-03-22T13:52:15.970Z,23.66
2023-03-22T13:54:20.348Z,23.75
2023-03-22T13:56:24.812Z,23.9
2023-03-22T13:58:29.218Z,24.02
2023-03-22T14:00:33.647Z,24.11
2023-03-22T14:02:38.213Z,24.2
2023-03-22T14:04:42.978Z,24.26
2023-03-22T14:06:47.303Z,24.32
2023-03-22T14:08:51.572Z,24.38
2023-03-22T14:10:55.964Z,24.43
2023-03-22T14:13:00.300Z,24.48
2023-03-22T14:15:04.717Z,24.53
2023-03-22T14:17:09.100Z,24.57
2023-03-22T14:19:13.519Z,24.57
2023-03-22T14:21:17.873Z,24.56
2023-03-22T14:47:41.938Z,24.46
2023-03-22T14:49:47.227Z,24.47
2023-03-22T14:53:53.867Z,24.43
2023-03-22T14:55:59.139Z,24.46
2023-03-22T14:58:04.689Z,24.47
2023-03-22T15:00:09.869Z,24.47
2023-03-22T15:02:15.539Z,24.48
2023-03-22T15:04:20.560Z,24.47
2023-03-22T15:06:25.667Z,24.46
2023-03-22T15:08:30.811Z,24.47
2023-03-22T15:10:35.837Z,24.48
2023-03-22T15:12:41.078Z,24.44
2023-03-22T15:14:46.180Z,24.33
2023-03-22T15:16:51.241Z,24.24
2023-03-22T15:18:56.302Z,24.14
2023-03-22T15:21:01.334Z,24.05
2023-03-22T15:23:06.693Z,24.02
2023-03-22T15:25:11.676Z,24
2023-03-22T15:27:16.876Z,23.99
2023-03-22T15:29:22.010Z,23.99
2023-03-22T15:31:27.051Z,24
2023-03-22T15:33:32.208Z,24.02
2023-03-22T15:35:38.321Z,24.02
2023-03-22T15:37:45.123Z,24.04
2023-03-22T15:39:50.164Z,24.03
2023-03-22T15:41:55.132Z,24.03
2023-03-22T15:44:00.186Z,24
2023-03-22T15:46:05.214Z,23.95
2023-03-22T15:48:10.386Z,23.91
2023-03-22T15:50:15.374Z,23.85
2023-03-22T15:52:20.372Z,23.77
2023-03-22T15:54:25.405Z,23.74
2023-03-22T15:56:35.038Z,23.73
2023-03-22T15:58:44.213Z,23.72
2023-03-22T16:00:49.501Z,23.69
2023-03-22T16:02:54.557Z,23.64
2023-03-22T16:04:59.576Z,23.59
2023-03-22T16:07:04.685Z,23.59
2023-03-22T16:09:09.721Z,23.63
2023-03-22T16:11:14.754Z,23.66
2023-03-22T16:13:19.733Z,23.66
2023-03-22T16:15:24.802Z,23.59
2023-03-22T16:17:29.827Z,23.59
2023-03-22T16:19:34.868Z,23.58
2023-03-22T16:21:39.983Z,23.62
2023-03-22T16:23:44.966Z,23.58
2023-03-22T16:25:49.936Z,23.53
2023-03-22T16:27:54.938Z,23.51
2023-03-22T16:30:00.149Z,23.52
2023-03-22T16:32:05.190Z,23.5
2023-03-22T16:34:10.191Z,23.46
2023-03-22T16:36:15.219Z,23.45
2023-03-22T16:38:20.359Z,23.45
2023-03-22T16:40:25.405Z,23.45
2023-03-22T16:42:30.675Z,23.43
2023-03-22T16:44:38.801Z,23.46
2023-03-22T16:46:58.901Z,23.54
2023-03-22T16:49:04.217Z,23.67
2023-03-22T16:51:09.253Z,23.78
2023-03-22T16:53:14.353Z,23.88
2023-03-22T16:55:19.424Z,23.95
2023-03-22T16:57:24.429Z,24.02
2023-03-22T16:59:29.767Z,24.09
2023-03-22T17:01:34.910Z,24.15
2023-03-22T17:03:40.300Z,24.2
2023-03-22T17:05:45.664Z,24.2
2023-03-22T17:07:50.712Z,24.23
2023-03-22T17:09:55.872Z,24.29
2023-03-22T17:12:00.963Z,24.31
2023-03-22T17:14:06.141Z,24.35
2023-03-22T17:16:11.235Z,24.39
2023-03-22T17:18:16.384Z,24.44
2023-03-22T17:20:21.489Z,24.48
2023-03-22T17:22:27.010Z,24.53
2023-03-22T17:24:33.082Z,24.58
2023-03-22T17:26:38.254Z,24.63
2023-03-22T17:28:43.402Z,24.68
2023-03-22T17:30:48.857Z,24.73
2023-03-22T17:35:07.608Z,24.81
2023-03-22T17:37:12.839Z,24.84
2023-03-22T17:39:36.025Z,24.88
2023-03-22T17:42:35.252Z,24.95
2023-03-22T17:44:40.344Z,24.97
2023-03-22T17:47:17.271Z,25.01
2023-03-22T17:49:47.496Z,25.05
2023-03-22T17:51:52.728Z,25.07
2023-03-22T17:57:33.251Z,25.08
2023-03-22T18:00:33.793Z,25.17
2023-03-22T18:02:39.147Z,25.23
2023-03-22T18:04:44.584Z,25.23
2023-03-22T18:06:49.596Z,25.24
2023-03-22T18:08:54.706Z,25.24
2023-03-22T18:10:59.843Z,25.22
2023-03-22T18:13:05.095Z,25.16
2023-03-22T18:15:10.507Z,25.1
2023-03-22T18:17:15.568Z,24.97
2023-03-22T18:19:21.335Z,24.8
2023-03-22T18:21:26.398Z,24.64
2023-03-22T18:23:31.418Z,24.51
2023-03-22T18:25:41.786Z,24.39
2023-03-22T18:27:47.950Z,24.29
2023-03-22T18:29:52.994Z,24.2
2023-03-22T18:32:01.179Z,24.1
2023-03-22T18:34:24.658Z,24.02
2023-03-22T18:36:29.692Z,23.95
2023-03-22T18:39:06.286Z,23.9
2023-03-22T18:42:57.092Z,23.8
2023-03-22T18:45:02.158Z,23.75
2023-03-22T18:47:07.398Z,23.72
2023-03-22T18:49:12.887Z,23.66
2023-03-22T18:51:17.835Z,23.63
2023-03-22T18:53:24.561Z,23.73
2023-03-22T18:55:35.912Z,23.85
2023-03-22T18:57:51.855Z,24.01
2023-03-22T18:59:56.851Z,24.13
2023-03-22T19:02:09.722Z,24.22
2023-03-22T19:04:41.686Z,24.31
2023-03-22T19:06:46.691Z,24.4
2023-03-22T19:08:51.925Z,24.47
2023-03-22T19:10:57.044Z,24.54
2023-03-22T19:13:02.877Z,24.56
2023-03-22T19:15:32.016Z,24.55
2023-03-22T19:17:53.764Z,24.57
2023-03-22T19:19:59.190Z,24.61
2023-03-22T19:22:04.513Z,24.63
2023-03-22T19:24:09.587Z,24.66
2023-03-22T19:26:14.877Z,24.7
2023-03-22T19:28:20.004Z,24.72
2023-03-22T19:30:29.851Z,24.75
2023-03-22T19:32:35.003Z,24.77
2023-03-22T19:34:40.073Z,24.8
2023-03-22T19:36:45.075Z,24.82
2023-03-22T19:38:50.274Z,24.85
2023-03-22T19:41:30.206Z,24.86
2023-03-22T19:43:50.300Z,24.88
2023-03-22T19:45:55.476Z,24.89
2023-03-22T19:48:04.140Z,24.88
2023-03-22T19:50:09.562Z,24.84
2023-03-22T19:52:14.678Z,24.83
2023-03-22T19:56:48.236Z,24.85
2023-03-22T19:58:53.371Z,24.87
2023-03-22T20:00:59.326Z,24.88
2023-03-22T20:03:07.215Z,24.9
2023-03-22T20:05:17.605Z,24.91
2023-03-22T20:07:23.131Z,24.92
2023-03-22T20:09:28.169Z,24.92
2023-03-22T20:11:41.679Z,24.94
2023-03-22T20:13:48.495Z,24.95
2023-03-22T20:15:53.828Z,24.95
2023-03-22T20:17:59.022Z,24.94
2023-03-22T20:20:04.728Z,24.95
2023-03-22T20:22:09.780Z,24.92
2023-03-22T20:24:15.061Z,24.91
2023-03-22T20:26:20.096Z,24.89
2023-03-22T20:28:25.103Z,24.88
2023-03-22T20:30:30.321Z,24.83
2023-03-22T20:32:35.411Z,24.79
2023-03-22T20:34:40.533Z,24.77
2023-03-22T20:36:45.806Z,24.76
2023-03-22T20:38:50.924Z,24.78
2023-03-22T20:40:56.106Z,24.77
2023-03-22T20:43:01.293Z,24.81
2023-03-22T20:45:06.523Z,24.85
2023-03-22T20:47:11.512Z,24.87
2023-03-22T20:49:16.597Z,24.89
2023-03-22T20:51:21.600Z,24.91
2023-03-22T20:53:26.671Z,24.94
2023-03-22T20:55:32.111Z,24.95
2023-03-22T20:57:37.076Z,24.97
2023-03-22T20:59:42.196Z,24.95
2023-03-22T21:01:47.252Z,24.6
2023-03-22T21:03:52.416Z,24.31
2023-03-22T21:05:57.599Z,24.1
2023-03-22T21:08:02.596Z,24.02
2023-03-22T21:10:07.878Z,23.95
2023-03-22T21:12:12.943Z,23.96
2023-03-22T21:14:17.904Z,23.94
2023-03-22T21:16:22.963Z,23.95
2023-03-22T21:18:28.032Z,23.92
2023-03-22T21:20:33.086Z,23.93
2023-03-22T21:22:38.371Z,23.92
2023-03-22T21:24:43.717Z,23.92
2023-03-22T21:26:48.913Z,23.92
2023-03-22T21:28:54.083Z,23.9
2023-03-22T21:30:59.156Z,23.88
2023-03-22T21:33:04.278Z,23.88
2023-03-22T21:35:09.581Z,23.85
2023-03-22T21:37:14.906Z,23.84
2023-03-22T21:39:20.045Z,23.85
2023-03-22T21:41:25.065Z,23.85
2023-03-22T21:43:30.379Z,23.86
2023-03-22T21:45:35.546Z,23.83
2023-03-22T21:47:40.569Z,23.83
2023-03-22T21:49:45.555Z,23.83
2023-03-22T21:51:50.519Z,23.83
2023-03-22T21:53:55.716Z,23.83
2023-03-22T21:56:00.944Z,23.81
2023-03-22T21:58:05.936Z,23.81
2023-03-22T22:00:11.314Z,23.79
2023-03-22T22:02:16.641Z,23.81
2023-03-22T22:04:21.927Z,23.82
2023-03-22T22:06:26.949Z,23.82
2023-03-22T22:08:31.926Z,23.8
2023-03-22T22:10:37.500Z,23.8
2023-03-22T22:12:42.624Z,23.8
2023-03-22T22:14:47.974Z,23.81
2023-03-22T22:16:53.311Z,23.81
2023-03-22T22:18:58.389Z,23.81
2023-03-22T22:21:03.513Z,23.81
2023-03-22T22:23:08.611Z,23.81
2023-03-22T22:25:13.710Z,23.78
2023-03-22T22:27:19.299Z,23.79
2023-03-22T22:29:24.824Z,23.77
2023-03-22T22:31:30.334Z,23.78
2023-03-22T22:33:35.556Z,23.75
2023-03-22T22:35:41.057Z,23.75
2023-03-22T22:37:46.974Z,23.73
2023-03-22T22:39:52.256Z,23.72
2023-03-22T22:41:58.035Z,23.71
2023-03-22T22:44:03.342Z,23.74
2023-03-22T22:46:08.519Z,23.72
2023-03-22T22:48:13.608Z,23.7
2023-03-22T22:50:18.945Z,23.72
2023-03-22T22:52:23.963Z,23.72
2023-03-22T22:54:29.343Z,23.72
2023-03-22T22:56:34.338Z,23.71
2023-03-22T22:58:39.471Z,23.68
2023-03-22T23:00:44.670Z,23.68
2023-03-22T23:02:49.647Z,23.68
2023-03-22T23:04:54.642Z,23.69
2023-03-22T23:06:59.723Z,23.69
2023-03-22T23:09:04.699Z,23.69
2023-03-22T23:11:09.802Z,23.69
2023-03-22T23:13:14.913Z,23.67
2023-03-22T23:15:26.877Z,23.68
2023-03-22T23:17:32.468Z,23.66
2023-03-22T23:19:37.694Z,23.67
2023-03-22T23:21:42.675Z,23.68
2023-03-22T23:23:49.589Z,23.65
2023-03-22T23:25:55.518Z,23.67
2023-03-22T23:28:00.555Z,23.66
2023-03-22T23:30:05.492Z,23.67
2023-03-22T23:32:10.692Z,23.66
2023-03-22T23:34:15.692Z,23.66
2023-03-22T23:36:21.147Z,23.67
2023-03-22T23:38:26.179Z,23.66
2023-03-22T23:40:31.426Z,23.66
2023-03-22T23:42:36.756Z,23.66
2023-03-22T23:44:41.942Z,23.65
2023-03-22T23:46:46.938Z,23.65
2023-03-22T23:48:52.171Z,23.65
2023-03-22T23:50:57.349Z,23.67
2023-03-22T23:53:02.370Z,23.66
2023-03-22T23:55:07.446Z,23.64
2023-03-22T23:57:12.623Z,23.66
2023-03-22T23:59:18.023Z,23.65
